Time;durP1;ratioP1;P1;durP2;ratioP2;P2;SDS_P1;SDS_P2;PMS_P1;PMS_P2;Temp;Humidity;BMP_temperature;BMP_pressure;BME280_temperature;BME280_humidity;BME280_pressure;Samples;Min_cycle;Max_cycle;Signal;HPM_P1;HPM_P2
2022/05/11 00:00:35;;;;;;;4.93;3.42;;;;;;;15.82;74.42;101287.22;4880382;29;20450;-65
2022/05/11 00:03:01;;;;;;;5.25;3.35;;;;;;;15.66;75.37;101278.63;4849187;29;20827;-66
2022/05/11 00:05:27;;;;;;;5.85;3.08;;;;;;;15.66;75.37;101268.75;4881087;29;20729;-65
2022/05/11 00:07:52;;;;;;;3.70;3.03;;;;;;;15.69;74.24;101268.47;4881692;29;20044;-65
2022/05/11 00:10:18;;;;;;;4.18;2.80;;;;;;;15.50;75.74;101281.59;4881146;29;20040;-65
2022/05/11 00:12:46;;;;;;;6.60;3.25;;;;;;;15.67;76.03;101283.03;4880630;29;20098;-65
2022/05/11 00:15:16;;;;;;;7.00;2.95;;;;;;;15.48;75.20;101273.66;4863866;29;20045;-65
2022/05/11 00:17:41;;;;;;;5.63;3.30;;;;;;;15.59;75.03;101253.16;4881494;29;20044;-66
2022/05/11 00:20:09;;;;;;;7.95;3.33;;;;;;;15.60;75.14;101265.63;4880581;29;20221;-65
2022/05/11 00:22:35;;;;;;;3.90;3.17;;;;;;;15.50;76.09;101262.78;4864823;29;20049;-65
2022/05/11 00:25:01;;;;;;;5.20;3.03;;;;;;;15.54;76.32;101259.75;4882248;29;20060;-64
2022/05/11 00:27:27;;;;;;;5.68;3.50;;;;;;;15.64;76.67;101259.91;4863811;29;20044;-65
2022/05/11 00:29:52;;;;;;;4.80;3.42;;;;;;;15.39;76.70;101252.00;4864376;29;20498;-65
2022/05/11 00:32:18;;;;;;;5.03;3.17;;;;;;;15.55;76.99;101255.22;4881207;29;20510;-65
2022/05/11 00:34:44;;;;;;;6.18;3.55;;;;;;;15.60;75.79;101254.88;4880851;29;20036;-66
2022/05/11 00:37:10;;;;;;;7.45;3.47;;;;;;;15.67;77.28;101253.47;4880237;29;20048;-66
2022/05/11 00:39:36;;;;;;;8.50;3.80;;;;;;;15.41;77.19;101259.00;4880221;29;20047;-67
2022/05/11 00:42:05;;;;;;;9.73;3.78;;;;;;;15.46;77.25;101247.88;4878454;29;20154;-65
2022/05/11 00:44:31;;;;;;;7.18;3.17;;;;;;;15.53;77.94;101249.13;4879922;29;20040;-65
2022/05/11 00:47:00;;;;;;;7.30;4.03;;;;;;;15.49;78.32;101243.13;4880553;29;20087;-66
2022/05/11 00:49:38;;;;;;;4.80;2.92;;;;;;;15.50;78.76;101235.91;4880200;29;20047;-65
2022/05/11 00:52:18;;;;;;;5.57;3.95;;;;;;;15.53;78.54;101233.00;4879674;29;20507;-65
2022/05/11 00:54:58;;;;;;;4.85;3.78;;;;;;;15.48;79.11;101221.75;4880887;29;20040;-65
2022/05/11 00:57:41;;;;;;;5.22;3.53;;;;;;;15.40;79.07;101219.63;4879754;29;20160;-65
2022/05/11 01:00:10;;;;;;;5.57;3.95;;;;;;;15.22;79.60;101231.81;4880047;29;20048;-65
2022/05/11 01:02:37;;;;;;;7.72;3.63;;;;;;;15.10;79.60;101222.00;4880348;29;20040;-64
2022/05/11 01:05:06;;;;;;;8.32;3.85;;;;;;;15.21;78.88;101219.34;4879173;29;20155;-65
2022/05/11 01:07:31;;;;;;;6.68;3.50;;;;;;;15.11;79.27;101215.66;4879571;29;20067;-65
2022/05/11 01:09:57;;;;;;;7.00;4.47;;;;;;;15.22;78.68;101195.06;4879554;29;20557;-65
2022/05/11 01:12:29;;;;;;;6.43;3.30;;;;;;;15.31;78.58;101203.38;4878803;29;20174;-65
2022/05/11 01:14:57;;;;;;;6.07;4.20;;;;;;;15.19;79.77;101215.94;4880704;29;20539;-65
2022/05/11 01:17:24;;;;;;;6.88;3.40;;;;;;;15.23;79.60;101199.47;4862714;29;20539;-65
2022/05/11 01:19:50;;;;;;;4.75;3.40;;;;;;;15.34;79.11;101197.78;4879547;29;20139;-65
2022/05/11 01:22:28;;;;;;;8.85;3.70;;;;;;;15.38;79.33;101199.25;4879013;29;20044;-65
2022/05/11 01:24:54;;;;;;;6.57;3.53;;;;;;;15.27;79.64;101195.56;4879772;29;20048;-65
2022/05/11 01:27:37;;;;;;;5.03;3.83;;;;;;;15.22;78.61;101188.84;4879159;29;20060;-65
2022/05/11 01:30:10;;;;;;;7.28;4.18;;;;;;;15.27;78.27;101192.88;4878975;29;20139;-65
2022/05/11 01:32:37;;;;;;;7.47;5.05;;;;;;;15.31;78.07;101185.41;4879813;29;20052;-65
2022/05/11 01:35:23;;;;;;;6.25;3.78;;;;;;;15.31;78.70;101182.72;4879185;29;20434;-64
2022/05/11 01:38:09;;;;;;;8.02;4.45;;;;;;;15.39;78.33;101180.31;4880018;29;20491;-65
2022/05/11 01:40:34;;;;;;;8.30;4.25;;;;;;;15.39;77.89;101187.53;4879866;29;20502;-65
2022/05/11 01:43:00;;;;;;;8.68;4.47;;;;;;;15.17;79.93;101191.88;4879228;29;20036;-65
2022/05/11 01:45:26;;;;;;;8.38;4.20;;;;;;;15.20;79.16;101180.03;4879053;29;20036;-65
2022/05/11 01:47:56;;;;;;;6.97;4.53;;;;;;;15.26;77.89;101179.53;4879515;29;20052;-65
2022/05/11 01:50:22;;;;;;;7.63;4.68;;;;;;;15.33;78.24;101171.88;4878464;29;20095;-65
2022/05/11 01:52:47;;;;;;;7.43;4.38;;;;;;;15.10;77.26;101166.44;4879742;29;20751;-65
2022/05/11 01:55:13;;;;;;;7.63;4.07;;;;;;;15.08;76.95;101154.97;4879135;29;20044;-65
2022/05/11 01:57:39;;;;;;;6.93;4.40;;;;;;;15.13;76.40;101162.69;4862231;29;20052;-65
2022/05/11 02:00:06;;;;;;;8.07;4.47;;;;;;;15.18;76.85;101160.50;4862675;29;20048;-64
2022/05/11 02:02:37;;;;;;;11.40;4.68;;;;;;;15.13;76.30;101152.78;4879176;29;20887;-64
2022/05/11 02:07:49;;;;;;;7.05;4.63;;;;;;;15.23;76.80;101156.47;4880216;29;20060;-65
2022/05/11 02:10:15;;;;;;;6.25;4.38;;;;;;;15.04;77.34;101156.19;4863915;29;20040;-65
2022/05/11 02:12:41;;;;;;;7.35;4.32;;;;;;;15.14;76.89;101151.81;4881450;29;20862;-64
2022/05/11 02:15:08;;;;;;;9.38;4.60;;;;;;;15.17;75.79;101154.28;4880101;29;20227;-64
2022/05/11 02:17:34;;;;;;;8.85;4.63;;;;;;;15.08;76.26;101154.13;4880551;29;20315;-65
2022/05/11 02:19:59;;;;;;;6.65;3.95;;;;;;;15.13;74.97;101150.09;4880703;29;20831;-64
2022/05/11 02:22:25;;;;;;;7.50;4.95;;;;;;;15.18;76.38;101147.06;4880042;29;20048;-64
2022/05/11 02:24:50;;;;;;;14.70;4.93;;;;;;;15.17;75.95;101142.66;4883517;29;20043;-64
2022/05/11 02:27:15;;;;;;;6.78;4.53;;;;;;;15.18;76.69;101144.38;4866500;29;20045;-64
2022/05/11 02:29:41;;;;;;;7.35;4.28;;;;;;;15.21;75.54;101142.31;4884544;29;20418;-64
2022/05/11 02:32:07;;;;;;;8.00;5.28;;;;;;;15.13;75.79;101146.56;4883055;29;20534;-64
2022/05/11 02:37:16;;;;;;;9.77;4.90;;;;;;;15.15;74.36;101137.41;4882660;29;20915;-64
2022/05/11 02:39:42;;;;;;;10.57;4.32;;;;;;;15.14;73.27;101135.69;4883676;29;20040;-67
2022/05/11 02:42:08;;;;;;;5.78;4.20;;;;;;;15.18;75.00;101139.00;4883169;29;20059;-67
2022/05/11 02:44:33;;;;;;;7.47;4.38;;;;;;;15.21;73.95;101138.75;4867228;29;20070;-66
2022/05/11 02:46:59;;;;;;;9.27;4.70;;;;;;;15.14;73.82;101140.22;4864348;29;20101;-64
2022/05/11 02:49:24;;;;;;;6.68;4.63;;;;;;;15.17;73.23;101138.16;4864362;29;20759;-64
2022/05/11 02:51:50;;;;;;;9.18;4.93;;;;;;;15.23;74.17;101132.28;4864087;29;20076;-64
2022/05/11 02:54:15;;;;;;;6.20;4.55;;;;;;;15.16;73.88;101138.25;4863829;29;20698;-64
2022/05/11 02:56:41;;;;;;;9.20;4.85;;;;;;;15.22;73.14;101144.03;4864165;29;20045;-65
2022/05/11 02:59:07;;;;;;;7.07;3.97;;;;;;;15.21;73.16;101144.13;4863664;29;20692;-65
2022/05/11 03:01:33;;;;;;;9.00;4.55;;;;;;;15.23;73.27;101147.56;4864772;29;20053;-65
2022/05/11 03:03:59;;;;;;;14.57;4.82;;;;;;;15.17;72.84;101140.84;4863837;29;20052;-65
2022/05/11 03:06:24;;;;;;;7.68;5.07;;;;;;;15.18;74.21;101139.84;4861743;29;20049;-64
2022/05/11 03:08:49;;;;;;;11.00;5.20;;;;;;;15.17;72.88;101134.59;4862782;29;20053;-64
2022/05/11 03:11:15;;;;;;;12.02;4.82;;;;;;;15.22;72.03;101132.41;4871704;29;20051;-65
2022/05/11 03:13:40;;;;;;;10.10;5.40;;;;;;;15.20;71.81;101132.53;4881461;29;20043;-65
2022/05/11 03:16:06;;;;;;;8.07;4.82;;;;;;;15.32;71.39;101129.88;4863792;29;20041;-65
2022/05/11 03:18:32;;;;;;;7.60;4.75;;;;;;;15.24;71.59;101123.25;4881730;29;20053;-65
2022/05/11 03:20:58;;;;;;;7.10;4.65;;;;;;;15.31;71.41;101133.50;4880909;29;20107;-64
2022/05/11 03:23:25;;;;;;;8.07;4.68;;;;;;;15.25;71.32;101119.59;4880564;29;20048;-65
2022/05/11 03:25:51;;;;;;;7.70;4.72;;;;;;;15.31;71.27;101123.63;4881373;29;20698;-63
2022/05/11 03:28:17;;;;;;;7.15;4.22;;;;;;;15.31;71.67;101112.00;4880402;29;20151;-65
2022/05/11 03:30:42;;;;;;;10.27;4.97;;;;;;;15.18;71.13;101113.00;4881437;29;20045;-64
2022/05/11 03:35:52;;;;;;;9.40;4.53;;;;;;;15.12;71.55;101096.50;4878940;29;20032;-64
2022/05/11 03:38:17;;;;;;;7.05;4.07;;;;;;;15.19;70.64;101095.88;4880944;29;20443;-64
2022/05/11 03:40:43;;;;;;;13.45;4.40;;;;;;;15.12;71.01;101102.72;4880365;29;20377;-64
2022/05/11 03:43:08;;;;;;;6.22;4.40;;;;;;;15.12;71.63;101094.69;4879709;29;20040;-64
2022/05/11 03:45:34;;;;;;;7.78;4.53;;;;;;;15.09;72.60;101104.78;4881395;29;20056;-64
2022/05/11 03:48:00;;;;;;;7.32;4.47;;;;;;;15.00;73.07;101099.16;4881348;29;20131;-64
2022/05/11 03:50:26;;;;;;;6.32;4.63;;;;;;;15.11;72.79;101094.78;4880491;29;20047;-63
2022/05/11 03:52:53;;;;;;;8.88;4.22;;;;;;;15.02;72.82;101099.06;4881061;29;20036;-64
2022/05/11 03:55:20;;;;;;;9.45;5.03;;;;;;;14.98;73.20;101095.75;4880786;29;20055;-64
2022/05/11 03:57:47;;;;;;;7.63;4.18;;;;;;;14.96;73.36;101095.03;4881761;29;20053;-64
2022/05/11 04:00:19;;;;;;;7.60;4.28;;;;;;;15.09;72.95;101094.06;4881331;29;20037;-64
2022/05/11 04:02:44;;;;;;;7.80;4.68;;;;;;;15.13;73.64;101091.00;4881229;29;20037;-64
2022/05/11 04:05:11;;;;;;;7.93;4.65;;;;;;;14.98;73.89;101082.31;4880143;29;20083;-64
2022/05/11 04:07:37;;;;;;;6.57;4.28;;;;;;;15.00;73.38;101076.81;4881254;29;20112;-64
2022/05/11 04:10:03;;;;;;;11.25;5.15;;;;;;;14.96;73.66;101088.75;4880763;29;20549;-64
2022/05/11 04:12:30;;;;;;;10.63;4.97;;;;;;;14.98;73.72;101073.41;4880637;29;20044;-64
2022/05/11 04:14:56;;;;;;;7.03;4.53;;;;;;;15.11;72.12;101078.66;4879883;29;20866;-64
2022/05/11 04:17:22;;;;;;;8.80;5.13;;;;;;;15.03;73.80;101079.28;4878829;29;20040;-64
2022/05/11 04:19:48;;;;;;;7.88;4.68;;;;;;;15.12;72.36;101070.50;4880441;29;20050;-64
2022/05/11 04:22:13;;;;;;;10.50;5.25;;;;;;;15.12;72.60;101080.38;4880100;29;20060;-64
2022/05/11 04:24:39;;;;;;;11.15;4.85;;;;;;;15.18;71.81;101075.38;4881234;29;20056;-64
2022/05/11 04:27:05;;;;;;;6.88;4.28;;;;;;;15.33;71.68;101067.94;4880604;29;20051;-64
2022/05/11 04:29:30;;;;;;;8.20;4.22;;;;;;;15.31;71.53;101071.72;4880260;29;20048;-64
2022/05/11 04:31:56;;;;;;;8.30;4.28;;;;;;;15.40;70.79;101071.84;4880684;29;20040;-66
2022/05/11 04:34:23;;;;;;;6.97;4.50;;;;;;;15.40;71.04;101070.97;4879058;29;20032;-66
2022/05/11 04:36:48;;;;;;;6.00;4.25;;;;;;;15.53;70.10;101069.03;4880601;29;20083;-66
2022/05/11 04:39:14;;;;;;;9.68;4.47;;;;;;;15.52;69.65;101062.81;4880075;29;20750;-66
2022/05/11 04:41:39;;;;;;;6.82;4.75;;;;;;;15.61;71.07;101068.41;4863705;29;20500;-65
2022/05/11 04:44:05;;;;;;;11.60;4.78;;;;;;;15.55;69.90;101070.59;4879398;29;20459;-65
2022/05/11 04:46:33;;;;;;;9.65;4.30;;;;;;;15.68;70.05;101066.97;4863222;29;20052;-66
2022/05/11 04:49:17;;;;;;;7.40;4.57;;;;;;;15.64;69.46;101066.34;4879321;29;20059;-66
2022/05/11 04:51:43;;;;;;;10.40;4.47;;;;;;;15.70;69.65;101065.00;4879458;29;20048;-65
2022/05/11 04:54:09;;;;;;;10.32;4.95;;;;;;;15.71;71.17;101072.06;4878943;29;20036;-66
2022/05/11 04:56:37;;;;;;;12.48;4.32;;;;;;;15.60;68.62;101069.38;4878537;29;20900;-66
2022/05/11 04:59:03;;;;;;;10.35;5.57;;;;;;;15.68;69.17;101066.97;4878956;29;20041;-66
2022/05/11 05:01:28;;;;;;;5.57;3.97;;;;;;;15.75;68.93;101071.69;4880108;29;20898;-65
2022/05/11 05:03:54;;;;;;;7.43;4.43;;;;;;;15.87;68.43;101072.56;4862414;29;20048;-66
2022/05/11 05:06:19;;;;;;;7.18;4.15;;;;;;;15.94;67.40;101073.75;4879609;29;20036;-66
2022/05/11 05:08:45;;;;;;;7.00;4.22;;;;;;;15.89;67.89;101075.13;4879676;29;20048;-66
2022/05/11 05:11:10;;;;;;;7.30;4.35;;;;;;;15.96;67.35;101079.00;4862336;29;20690;-67
2022/05/11 05:13:35;;;;;;;6.93;4.50;;;;;;;16.04;66.79;101073.84;4878243;29;20091;-66
2022/05/11 05:16:01;;;;;;;7.53;4.68;;;;;;;16.12;66.20;101075.91;4877932;29;20036;-67
2022/05/11 05:18:28;;;;;;;7.53;4.93;;;;;;;16.26;66.53;101078.28;4877943;29;20546;-66
2022/05/11 05:20:55;;;;;;;9.25;4.55;;;;;;;16.46;66.65;101073.94;4877603;29;20037;-65
2022/05/11 05:23:21;;;;;;;8.35;4.85;;;;;;;16.30;66.40;101079.75;4877132;29;20127;-66
2022/05/11 05:25:47;;;;;;;10.32;4.70;;;;;;;16.45;66.90;101083.00;4878132;29;20044;-66
2022/05/11 05:31:06;;;;;;;6.25;4.13;;;;;;;16.53;66.22;101086.75;4877206;29;20116;-67
2022/05/11 05:33:33;;;;;;;7.43;3.95;;;;;;;16.54;64.87;101087.59;4875376;29;20077;-66
2022/05/11 05:36:00;;;;;;;9.18;4.00;;;;;;;16.61;65.60;101086.09;4876156;29;20024;-65
2022/05/11 05:38:26;;;;;;;7.22;3.67;;;;;;;16.64;64.99;101079.59;4876646;29;20533;-66
2022/05/11 05:40:52;;;;;;;6.65;4.00;;;;;;;16.70;65.33;101084.47;4860375;29;20044;-66
2022/05/11 05:43:18;;;;;;;5.28;3.42;;;;;;;16.71;65.19;101091.53;4876748;29;20677;-66
2022/05/11 05:45:54;;;;;;;9.63;3.47;;;;;;;16.73;64.54;101084.25;4877634;29;20097;-66
2022/05/11 05:48:21;;;;;;;4.88;3.10;;;;;;;16.87;63.67;101088.41;4890775;29;20681;-65
2022/05/11 05:50:46;;;;;;;4.65;2.95;;;;;;;16.84;64.20;101084.16;4877144;29;20771;-66
2022/05/11 05:53:14;;;;;;;7.10;3.38;;;;;;;16.74;63.08;101089.50;4876800;29;20055;-66
2022/05/11 05:55:41;;;;;;;4.93;2.80;;;;;;;16.91;63.71;101084.50;4861826;29;20056;-66
2022/05/11 05:58:06;;;;;;;4.28;3.13;;;;;;;17.08;62.05;101082.06;4875964;29;20037;-66
2022/05/11 06:00:32;;;;;;;5.20;2.83;;;;;;;17.03;61.31;101075.34;4876523;29;20439;-66
2022/05/11 06:02:58;;;;;;;4.45;2.90;;;;;;;17.02;61.23;101081.75;4876637;29;20036;-66
2022/05/11 06:05:24;;;;;;;5.90;2.72;;;;;;;17.46;61.03;101080.50;4858549;29;20040;-66
2022/05/11 06:07:49;;;;;;;6.10;2.40;;;;;;;17.72;59.12;101082.72;4875913;29;21067;-66
2022/05/11 06:10:15;;;;;;;6.05;3.10;;;;;;;17.99;58.93;101082.97;4875432;29;20040;-66
2022/05/11 06:12:40;;;;;;;10.15;2.85;;;;;;;17.83;58.83;101085.38;4876609;29;20116;-66
2022/05/11 06:15:06;;;;;;;8.25;2.70;;;;;;;18.06;58.69;101080.56;4858761;29;20546;-66
2022/05/11 06:17:33;;;;;;;8.48;2.60;;;;;;;18.00;58.45;101081.13;4877028;29;20056;-66
2022/05/11 06:19:58;;;;;;;5.18;2.28;;;;;;;18.25;57.87;101088.69;4859684;29;20095;-66
2022/05/11 06:22:27;;;;;;;3.08;2.22;;;;;;;18.31;57.28;101080.03;4875543;29;20475;-67
2022/05/11 06:24:53;;;;;;;5.03;2.53;;;;;;;17.93;58.71;101086.25;4876670;29;20051;-66
2022/05/11 06:27:23;;;;;;;6.55;3.50;;;;;;;17.54;58.46;101079.84;4858843;29;20048;-66
2022/05/11 06:29:54;;;;;;;5.55;2.40;;;;;;;17.92;59.13;101084.50;4877054;29;20051;-66
2022/05/11 06:32:22;;;;;;;3.50;2.50;;;;;;;18.12;59.05;101074.59;4876452;29;20044;-67
2022/05/11 06:34:48;;;;;;;2.67;2.00;;;;;;;18.13;56.95;101076.34;4875891;29;20095;-66
2022/05/11 06:37:14;;;;;;;3.05;2.40;;;;;;;18.45;56.43;101067.94;4875977;29;20044;-67
2022/05/11 06:39:39;;;;;;;4.18;2.00;;;;;;;19.13;54.41;101063.31;4877110;29;20036;-66
2022/05/11 06:42:10;;;;;;;5.85;2.85;;;;;;;19.53;54.59;101061.28;4858721;29;20040;-67
2022/05/11 06:44:35;;;;;;;4.32;2.15;;;;;;;19.86;52.62;101060.72;4859383;29;20037;-67
2022/05/11 06:47:02;;;;;;;3.20;1.90;;;;;;;19.81;52.51;101065.72;4876602;29;20045;-66
2022/05/11 06:49:27;;;;;;;3.05;2.33;;;;;;;20.07;52.02;101063.13;4876186;29;20044;-67
2022/05/11 06:51:53;;;;;;;14.55;2.75;;;;;;;19.63;51.65;101054.88;4876433;29;20890;-67
2022/05/11 06:59:47;;;;;;;3.45;1.75;;;;;;;20.56;48.50;101055.50;4875579;29;20080;-65
2022/05/11 07:02:12;;;;;;;2.85;2.30;;;;;;;20.44;49.18;101048.59;4859002;29;20040;-65
2022/05/11 07:04:38;;;;;;;7.15;2.42;;;;;;;20.51;49.83;101055.13;4859631;29;20067;-66
2022/05/11 07:07:05;;;;;;;3.75;2.58;;;;;;;20.43;49.13;101055.88;4876627;29;20052;-65
2022/05/11 07:09:32;;;;;;;9.85;2.75;;;;;;;20.80;46.31;101045.88;4878013;29;20134;-66
2022/05/11 07:12:17;;;;;;;2.58;1.77;;;;;;;19.99;48.91;101048.69;4862479;29;20570;-66
2022/05/11 07:14:58;;;;;;;4.40;2.20;;;;;;;19.19;51.36;101053.78;4878503;29;20040;-66
2022/05/11 07:17:42;;;;;;;4.32;2.53;;;;;;;19.32;50.97;101061.53;4862401;29;20040;-66
2022/05/11 07:20:18;;;;;;;5.15;2.53;;;;;;;18.77;52.46;101056.00;4862475;29;20041;-65
2022/05/11 07:22:43;;;;;;;5.13;2.38;;;;;;;19.31;51.55;101057.13;4862249;29;20076;-65
2022/05/11 07:25:12;;;;;;;3.83;2.40;;;;;;;19.32;51.30;101048.84;4843835;29;20136;-65
2022/05/11 07:27:38;;;;;;;6.63;2.67;;;;;;;19.59;51.37;101056.19;4854351;29;20037;-66
2022/05/11 07:30:07;;;;;;;4.80;2.58;;;;;;;19.34;51.11;101057.69;4879500;29;20081;-65
2022/05/11 07:32:32;;;;;;;3.95;2.88;;;;;;;19.30;50.99;101053.56;4880495;29;20521;-66
2022/05/11 07:34:57;;;;;;;6.55;2.50;;;;;;;19.39;50.61;101060.81;4880018;29;20041;-66
2022/05/11 07:37:23;;;;;;;9.50;3.05;;;;;;;20.38;50.28;101051.91;4862429;29;20060;-66
2022/05/11 07:39:49;;;;;;;4.35;2.20;;;;;;;20.14;50.04;101056.13;4863049;29;20060;-65
2022/05/11 07:42:16;;;;;;;5.88;3.10;;;;;;;20.46;48.52;101056.56;4879672;29;20123;-66
2022/05/11 07:44:42;;;;;;;4.70;2.92;;;;;;;20.49;50.03;101061.72;4863340;29;20037;-66
2022/05/11 07:47:10;;;;;;;2.20;1.90;;;;;;;20.30;48.79;101055.41;4863135;29;20060;-65
2022/05/11 07:49:36;;;;;;;2.88;2.17;;;;;;;20.03;48.97;101055.47;4862796;29;20144;-66
2022/05/11 07:52:02;;;;;;;6.50;1.90;;;;;;;20.44;47.14;101054.88;4862488;29;20131;-65
2022/05/11 07:54:29;;;;;;;6.18;1.98;;;;;;;20.48;46.36;101058.13;4846891;29;20059;-65
2022/05/11 07:59:57;;;;;;;2.55;1.45;;;;;;;20.68;45.60;101053.38;4879234;29;20683;-66
2022/05/11 08:02:31;;;;;;;3.03;1.58;;;;;;;21.55;44.43;101051.56;4877284;29;20916;-66
2022/05/11 08:04:59;;;;;;;4.47;1.75;;;;;;;21.10;44.16;101050.81;4876954;29;20135;-66
2022/05/11 08:07:34;;;;;;;2.60;1.50;;;;;;;21.40;43.84;101046.75;4862771;29;20088;-66
2022/05/11 08:10:00;;;;;;;2.83;1.50;;;;;;;21.83;45.19;101052.16;4863037;29;20854;-66
2022/05/11 08:12:26;;;;;;;4.63;1.35;;;;;;;21.48;45.98;101054.06;4879741;29;20047;-66
2022/05/11 08:14:53;;;;;;;2.40;1.60;;;;;;;20.91;45.21;101068.13;4880132;29;20037;-67
2022/05/11 08:17:34;;;;;;;2.85;1.38;;;;;;;21.37;44.36;101063.34;4879362;29;20550;-65
2022/05/11 08:20:01;;;;;;;5.50;2.25;;;;;;;21.23;44.25;101054.94;4879090;29;20116;-66
2022/05/11 08:22:27;;;;;;;3.47;1.33;;;;;;;21.57;42.96;101057.66;4861614;29;20056;-66
2022/05/11 08:24:56;;;;;;;3.08;1.67;;;;;;;21.75;42.56;101049.44;4878748;29;20033;-66
2022/05/11 08:27:26;;;;;;;2.35;1.48;;;;;;;21.24;44.82;101057.50;4869589;29;20049;-66
2022/05/11 08:33:37;;;;;;;3.85;1.90;;;;;;;20.22;45.09;101062.59;4860987;29;20144;-65
2022/05/11 08:35:31;;;;;;;3.03;1.52;;;;;;;20.64;44.97;101060.16;4851843;29;20052;-66
2022/05/11 08:37:56;;;;;;;5.80;1.70;;;;;;;20.46;45.43;101056.56;4860869;29;20065;-65
2022/05/11 08:40:49;;;;;;;1.45;1.33;;;;;;;20.66;45.71;101058.13;4859655;29;20051;-65
2022/05/11 08:43:17;;;;;;;7.47;1.15;;;;;;;20.69;43.21;101061.38;4841820;29;20044;-67
2022/05/11 08:46:05;;;;;;;5.05;2.03;;;;;;;20.31;45.25;101061.69;4860197;29;20037;-65
2022/05/11 08:48:37;;;;;;;6.15;2.13;;;;;;;20.26;45.33;101061.28;4860088;29;20136;-66
2022/05/11 08:51:05;;;;;;;2.40;1.58;;;;;;;20.56;43.71;101054.66;4859707;29;20227;-68
2022/05/11 08:53:40;;;;;;;4.55;1.48;;;;;;;21.32;44.68;101057.56;4860137;29;20049;-66
2022/05/11 08:56:13;;;;;;;1.60;1.40;;;;;;;21.57;43.85;101058.53;4859650;29;20044;-66
2022/05/11 08:58:54;;;;;;;2.25;1.05;;;;;;;21.65;43.10;101057.72;4850683;29;20048;-65
2022/05/11 09:01:29;;;;;;;1.88;1.40;;;;;;;21.58;43.69;101065.66;4870065;29;20112;-66
2022/05/11 09:03:58;;;;;;;2.28;1.25;;;;;;;21.37;42.57;101055.22;4856458;29;20072;-66
2022/05/11 09:06:27;;;;;;;2.30;1.35;;;;;;;20.52;43.72;101054.09;4857311;29;20045;-66
2022/05/11 09:08:54;;;;;;;4.32;1.27;;;;;;;21.56;44.20;101054.13;4857516;29;20052;-66
2022/05/11 09:11:31;;;;;;;5.30;1.70;;;;;;;21.83;43.09;101053.00;4867282;29;20573;-65
2022/05/11 09:13:58;;;;;;;4.63;1.55;;;;;;;21.70;41.56;101058.91;4876093;29;20036;-66
2022/05/11 09:16:27;;;;;;;2.15;1.40;;;;;;;20.59;44.22;101063.31;4876532;29;20050;-66
2022/05/11 09:18:53;;;;;;;1.77;1.23;;;;;;;20.66;44.79;101050.84;4876777;29;20049;-66
2022/05/11 09:21:29;;;;;;;6.53;1.85;;;;;;;20.91;44.35;101051.03;4876242;29;20066;-66
2022/05/11 09:24:08;;;;;;;3.85;1.80;;;;;;;21.52;43.75;101043.75;4859455;29;20129;-65
2022/05/11 09:26:37;;;;;;;4.18;1.73;;;;;;;21.37;42.15;101040.78;4876607;29;21135;-65
2022/05/11 09:29:16;;;;;;;5.88;2.20;;;;;;;21.65;43.65;101042.28;4876087;29;20048;-65
2022/05/11 09:31:44;;;;;;;2.63;1.55;;;;;;;22.14;41.68;101036.13;4877916;29;20048;-65
2022/05/11 09:34:26;;;;;;;7.47;2.38;;;;;;;22.16;43.13;101037.66;4875658;29;20580;-68
2022/05/11 09:36:59;;;;;;;6.80;1.85;;;;;;;22.26;43.73;101026.66;4877678;29;20994;-66
2022/05/11 09:39:27;;;;;;;5.05;1.50;;;;;;;22.09;42.40;101030.31;4859165;29;20040;-67
2022/05/11 09:41:56;;;;;;;4.03;1.83;;;;;;;21.53;43.14;101030.00;4876719;29;20131;-64
2022/05/11 09:44:26;;;;;;;5.32;1.73;;;;;;;21.86;44.51;101035.56;4858388;29;20056;-65
2022/05/11 09:46:53;;;;;;;3.35;1.95;;;;;;;21.21;45.33;101036.13;4876755;29;20044;-67
2022/05/11 09:49:18;;;;;;;8.38;2.50;;;;;;;21.48;44.72;101024.22;4876437;29;20080;-67
2022/05/11 09:51:46;;;;;;;5.97;2.22;;;;;;;20.91;46.50;101023.91;4877498;29;20509;-67
2022/05/11 09:54:38;;;;;;;4.40;2.22;;;;;;;21.95;43.95;101029.97;4876764;29;20036;-67
2022/05/11 09:57:11;;;;;;;5.40;2.75;;;;;;;21.37;45.74;101036.22;4859007;29;20854;-68
2022/05/11 09:59:45;;;;;;;3.55;2.38;;;;;;;21.76;44.67;101030.25;4876690;29;20119;-67
2022/05/11 10:02:32;;;;;;;3.78;2.20;;;;;;;21.75;44.29;101031.28;4876476;29;20129;-66
2022/05/11 10:05:06;;;;;;;5.07;2.05;;;;;;;22.06;43.35;101034.22;4864929;29;20085;-67
2022/05/11 10:07:44;;;;;;;8.00;2.88;;;;;;;22.28;45.80;101018.31;4840636;29;20045;-67
2022/05/11 10:10:33;;;;;;;5.18;2.78;;;;;;;21.80;43.64;101028.06;4858360;29;20049;-67
2022/05/11 10:13:15;;;;;;;6.10;2.90;;;;;;;22.31;44.45;101026.16;4876553;29;20044;-68
2022/05/11 10:24:49;;;;;;;4.35;2.45;;;;;;;22.41;44.13;101013.25;4798847;29;20149;-66
2022/05/11 10:27:35;;;;;;;5.45;2.65;;;;;;;23.11;44.54;100997.16;4799111;29;20501;-67
2022/05/11 10:30:10;;;;;;;4.72;3.20;;;;;;;22.87;43.35;100995.31;4799838;29;20054;-66
2022/05/11 10:33:13;;;;;;;3.65;2.85;;;;;;;22.54;43.93;101002.72;4785066;29;20147;-66
2022/05/11 10:36:16;;;;;;;6.88;3.00;;;;;;;22.42;44.61;101004.91;4800376;29;20452;-66
2022/05/11 10:39:09;;;;;;;10.65;5.03;;;;;;;22.74;44.83;101000.44;4799958;29;20695;-65
2022/05/11 10:41:47;;;;;;;7.95;3.08;;;;;;;22.23;44.48;101002.53;4799761;29;20062;-66
2022/05/11 10:44:39;;;;;;;6.28;3.17;;;;;;;22.82;42.87;100996.88;4798857;29;20050;-65
2022/05/11 10:47:21;;;;;;;4.22;3.13;;;;;;;22.48;42.51;100998.78;4803545;29;20080;-65
2022/05/11 10:49:59;;;;;;;7.38;3.05;;;;;;;22.92;43.17;100986.69;4804126;29;21013;-65
2022/05/11 10:52:36;;;;;;;6.35;3.15;;;;;;;22.59;42.76;100983.13;4802721;29;20154;-65
2022/05/11 10:55:12;;;;;;;4.30;3.40;;;;;;;22.92;43.36;100987.53;4838413;29;20059;-66
2022/05/11 10:58:17;;;;;;;4.80;3.15;;;;;;;22.40;43.94;100987.94;4863968;29;20056;-66
2022/05/11 11:00:47;;;;;;;7.07;3.13;;;;;;;22.52;44.12;100987.56;4879845;29;20055;-66
2022/05/11 11:03:44;;;;;;;5.97;3.30;;;;;;;22.28;45.12;100992.00;4862999;29;20052;-65
2022/05/11 11:09:28;;;;;;;9.73;3.60;;;;;;;22.06;43.44;100979.91;4879158;29;20048;-65
2022/05/11 11:11:57;;;;;;;2.97;2.47;;;;;;;22.55;42.15;100989.97;4879796;29;20780;-66
2022/05/11 11:14:31;;;;;;;5.60;3.08;;;;;;;23.13;41.65;100986.94;4860643;29;20041;-66
2022/05/11 11:16:57;;;;;;;11.55;3.53;;;;;;;22.50;41.61;100971.44;4879123;29;20269;-65
2022/05/11 11:19:24;;;;;;;6.20;3.50;;;;;;;22.61;41.45;100989.28;4878116;29;20148;-65
2022/05/11 11:21:50;;;;;;;5.53;3.00;;;;;;;22.40;42.02;100981.66;4861965;29;20058;-66
2022/05/11 11:24:25;;;;;;;5.25;3.65;;;;;;;22.15;42.01;100981.66;4877540;29;20048;-66
2022/05/11 11:26:53;;;;;;;5.03;2.92;;;;;;;22.58;42.14;100979.56;4878381;29;20163;-65
2022/05/11 11:29:23;;;;;;;2.45;2.25;;;;;;;22.77;41.94;100966.63;4892605;29;20048;-65
2022/05/11 11:32:02;;;;;;;11.30;3.50;;;;;;;22.52;40.85;100977.56;4862732;29;20446;-65
2022/05/11 11:34:31;;;;;;;5.20;3.10;;;;;;;22.51;42.37;100969.56;4878752;29;20174;-66
2022/05/11 11:36:57;;;;;;;5.30;3.33;;;;;;;22.50;42.54;100963.28;4862334;29;20052;-67
2022/05/11 11:39:52;;;;;;;5.75;2.95;;;;;;;23.00;41.03;100964.91;4861145;29;20356;-67
2022/05/11 11:42:42;;;;;;;6.93;2.53;;;;;;;22.60;40.50;100953.09;4861563;29;20048;-67
2022/05/11 11:45:31;;;;;;;6.07;3.08;;;;;;;22.64;41.08;100959.88;4878871;29;20049;-67
2022/05/11 11:48:17;;;;;;;3.42;2.92;;;;;;;23.02;39.65;100942.97;4861513;29;20057;-67
2022/05/11 11:50:50;;;;;;;8.27;3.58;;;;;;;22.52;40.97;100944.94;4878744;29;20136;-66
2022/05/11 11:53:24;;;;;;;3.63;2.90;;;;;;;23.30;39.99;100956.97;4878414;29;20032;-67
2022/05/11 11:55:50;;;;;;;6.93;3.10;;;;;;;23.02;40.68;100953.84;4877641;29;20041;-66
2022/05/11 11:58:30;;;;;;;4.13;2.95;;;;;;;23.03;40.24;100937.34;4877781;29;20083;-66
2022/05/11 12:01:03;;;;;;;7.03;3.25;;;;;;;23.19;40.20;100948.19;4878300;29;20510;-66
2022/05/11 12:03:32;;;;;;;10.40;3.30;;;;;;;23.25;41.52;100939.31;4877528;29;20052;-66
2022/05/11 12:17:05;;;;;;;2.80;2.22;;;;;;;23.59;38.50;100926.34;4879190;29;20059;-66
2022/05/11 12:19:33;;;;;;;4.47;2.70;;;;;;;23.32;39.98;100928.53;4875603;29;20037;-66
2022/05/11 12:22:12;;;;;;;6.20;2.70;;;;;;;23.02;39.59;100919.31;4875827;29;20041;-66